createdAt,value
2023-06-24T03:02:34.806Z,100506.77
2023-06-24T03:05:10.802Z,100507.67
2023-06-24T03:07:40.953Z,100504.34
2023-06-24T03:10:12.738Z,100506.42
2023-06-24T03:12:43.959Z,100508.05
2023-06-24T03:15:16.034Z,100509.86
2023-06-24T03:17:49.674Z,100512.44
2023-06-24T03:20:59.059Z,100513.09
2023-06-24T03:24:03.871Z,100515.48
2023-06-24T03:27:33.030Z,100519.22
2023-06-24T03:31:02.922Z,100527.19
2023-06-24T03:33:33.519Z,100536.16
2023-06-24T03:36:09.250Z,100540.81
2023-06-24T03:38:38.671Z,100543.00
2023-06-24T03:41:32.868Z,100542.69
2023-06-24T03:44:03.324Z,100538.09
2023-06-24T03:46:35.034Z,100538.42
2023-06-24T03:49:10.265Z,100540.64
2023-06-24T03:51:41.229Z,100542.77
2023-06-24T03:54:13.539Z,100542.82
2023-06-24T03:56:45.872Z,100543.92
2023-06-24T03:59:15.755Z,100543.95
2023-06-24T04:01:45.415Z,100555.77
2023-06-24T04:04:15.813Z,100554.61
2023-06-24T04:06:46.309Z,100555.65
2023-06-24T04:09:17.393Z,100556.02
2023-06-24T04:11:47.789Z,100557.36
2023-06-24T04:14:17.512Z,100558.36
2023-06-24T04:16:46.725Z,100563.16
2023-06-24T04:19:16.328Z,100559.16
2023-06-24T04:21:46.600Z,100560.25
2023-06-24T04:24:16.567Z,100568.52
2023-06-24T04:26:48.028Z,100569.67
2023-06-24T04:29:17.049Z,100562.80
2023-06-24T04:31:48.608Z,100566.10
2023-06-24T04:34:19.916Z,100557.39
2023-06-24T04:36:50.593Z,100559.29
2023-06-24T04:39:20.048Z,100565.71
2023-06-24T04:41:51.474Z,100568.32
2023-06-24T04:44:22.921Z,100567.71
2023-06-24T04:46:54.428Z,100570.40
2023-06-24T04:49:28.924Z,100574.06
2023-06-24T04:51:58.152Z,100567.31
2023-06-24T04:54:28.540Z,100565.14
2023-06-24T04:57:00.065Z,100565.55
2023-06-24T04:59:31.356Z,100571.76
2023-06-24T05:02:02.765Z,100568.36
2023-06-24T05:04:46.587Z,100568.66
2023-06-24T05:07:52.528Z,100563.97
2023-06-24T05:10:55.175Z,100565.18
2023-06-24T05:13:46.072Z,100568.81
2023-06-24T05:16:41.181Z,100567.45
2023-06-24T05:19:32.074Z,100572.91
2023-06-24T05:23:00.581Z,100580.30
2023-06-24T05:25:30.283Z,100576.86
2023-06-24T05:28:01.868Z,100573.56
2023-06-24T05:30:31.130Z,100573.44
2023-06-24T05:33:00.114Z,100577.52
2023-06-24T05:35:29.759Z,100580.48
2023-06-24T05:37:59.144Z,100587.27
2023-06-24T05:40:28.400Z,100594.35
2023-06-24T05:43:01.268Z,100602.99
2023-06-24T05:52:32.100Z,100599.33
2023-06-24T05:55:20.023Z,100598.59
2023-06-24T05:57:52.991Z,100599.95
2023-06-24T06:00:31.266Z,100591.45
2023-06-24T06:03:00.954Z,100596.56
2023-06-24T06:05:48.184Z,100595.40
2023-06-24T06:09:35.449Z,100601.33
2023-06-24T06:12:58.361Z,100600.38
2023-06-24T06:16:55.178Z,100597.35
2023-06-24T06:20:06.147Z,100602.81
2023-06-24T06:22:55.867Z,100602.54
2023-06-24T06:25:29.257Z,100598.75
2023-06-24T06:28:04.073Z,100601.04
2023-06-24T06:30:34.411Z,100611.28
2023-06-24T06:33:04.352Z,100610.39
2023-06-24T06:35:33.264Z,100608.59
2023-06-24T06:38:38.226Z,100604.23
2023-06-24T06:41:27.892Z,100612.66
2023-06-24T06:44:19.271Z,100611.63
2023-06-24T06:47:24.788Z,100609.75
2023-06-24T06:49:57.320Z,100604.54
2023-06-24T06:52:27.403Z,100604.55
2023-06-24T06:54:56.615Z,100600.23
2023-06-24T06:57:28.593Z,100601.95
2023-06-24T06:59:58.731Z,100608.11
2023-06-24T07:02:29.245Z,100614.23
2023-06-24T07:05:03.739Z,100611.62
2023-06-24T07:07:37.944Z,100607.98
2023-06-24T07:10:07.912Z,100603.79
2023-06-24T07:12:36.758Z,100598.74
2023-06-24T07:15:07.594Z,100596.35
2023-06-24T07:17:36.773Z,100598.48
2023-06-24T07:20:06.784Z,100600.09
2023-06-24T07:22:36.207Z,100596.77
2023-06-24T07:25:06.087Z,100595.23
2023-06-24T07:27:35.327Z,100588.45
2023-06-24T07:30:10.424Z,100589.70
2023-06-24T07:32:40.627Z,100595.64
2023-06-24T07:35:09.961Z,100593.86
2023-06-24T07:37:40.546Z,100597.19
2023-06-24T07:40:10.493Z,100599.20
2023-06-24T07:42:40.088Z,100602.23
2023-06-24T07:45:10.172Z,100606.14
2023-06-24T07:47:40.036Z,100605.25
2023-06-24T07:50:12.585Z,100609.27
2023-06-24T07:52:42.676Z,100609.52
2023-06-24T07:55:12.588Z,100613.52
2023-06-24T07:57:44.263Z,100614.45
2023-06-24T08:00:14.822Z,100612.61
2023-06-24T08:02:46.378Z,100607.09
2023-06-24T08:05:16.388Z,100605.30
2023-06-24T08:07:49.160Z,100609.89
2023-06-24T08:10:22.326Z,100608.08
2023-06-24T08:12:51.906Z,100606.39
2023-06-24T08:15:21.242Z,100609.05
2023-06-24T08:17:57.067Z,100610.09
2023-06-24T08:20:26.850Z,100608.73
2023-06-24T08:22:56.484Z,100610.23
2023-06-24T08:25:27.112Z,100615.02
2023-06-24T08:27:58.539Z,100616.90
2023-06-24T08:30:29.520Z,100620.67
2023-06-24T08:33:29.635Z,100628.73
2023-06-24T08:36:53.340Z,100629.21
2023-06-24T08:39:47.010Z,100630.70
2023-06-24T08:45:49.300Z,100629.93
2023-06-24T08:49:06.851Z,100624.74
2023-06-24T08:52:42.442Z,100623.75
2023-06-24T08:55:57.699Z,100621.60
2023-06-24T08:59:22.064Z,100623.06
2023-06-24T09:02:15.861Z,100629.79
2023-06-24T09:04:45.177Z,100626.41
2023-06-24T09:07:27.893Z,100626.25
2023-06-24T09:10:39.420Z,100626.85
2023-06-24T09:13:17.501Z,100628.22
2023-06-24T09:15:47.767Z,100632.88
2023-06-24T09:18:39.605Z,100635.77
2023-06-24T09:21:27.215Z,100629.31
2023-06-24T09:24:02.254Z,100632.19
2023-06-24T09:26:54.460Z,100633.76
2023-06-24T09:29:36.711Z,100636.95
2023-06-24T09:32:08.175Z,100637.04
2023-06-24T09:34:44.280Z,100638.89
2023-06-24T09:37:36.552Z,100639.25
2023-06-24T09:40:29.401Z,100645.33
2023-06-24T09:43:03.183Z,100645.30
2023-06-24T09:45:33.077Z,100647.55
2023-06-24T09:48:14.931Z,100647.03
2023-06-24T09:50:45.534Z,100648.48
2023-06-24T09:53:29.875Z,100650.31
2023-06-24T09:56:11.825Z,100648.70
2023-06-24T09:58:51.582Z,100653.09
2023-06-24T10:01:27.667Z,100651.45
2023-06-24T10:04:02.505Z,100651.59
2023-06-24T10:07:07.371Z,100648.84
2023-06-24T10:09:40.631Z,100654.09
2023-06-24T10:12:14.915Z,100655.11
2023-06-24T10:14:54.651Z,100656.27
2023-06-24T10:17:29.239Z,100659.83
2023-06-24T10:19:59.331Z,100656.92
2023-06-24T10:22:34.830Z,100651.34
2023-06-24T10:25:14.227Z,100653.09
2023-06-24T10:27:57.906Z,100653.54
2023-06-24T10:30:50.372Z,100650.75
2023-06-24T10:33:44.842Z,100647.66
2023-06-24T10:36:35.734Z,100645.88
2023-06-24T10:39:51.205Z,100638.90
2023-06-24T10:42:33.508Z,100642.27
2023-06-24T10:45:16.285Z,100635.10
2023-06-24T10:47:50.931Z,100636.67
2023-06-24T10:50:26.764Z,100636.79
2023-06-24T10:53:01.238Z,100633.84
2023-06-24T10:55:30.791Z,100633.88
2023-06-24T10:58:12.842Z,100636.55
2023-06-24T11:00:48.463Z,100633.87
2023-06-24T11:03:20.587Z,100632.70
2023-06-24T11:05:51.551Z,100637.77
2023-06-24T11:08:22.563Z,100636.11
2023-06-24T11:11:07.981Z,100638.10
2023-06-24T11:13:42.737Z,100639.92
2023-06-24T11:16:24.889Z,100638.53
2023-06-24T11:19:18.396Z,100638.23
2023-06-24T11:22:06.973Z,100636.56
2023-06-24T11:24:51.411Z,100638.11
2023-06-24T11:27:33.103Z,100634.02
2023-06-24T11:30:08.834Z,100633.30
2023-06-24T11:33:03.326Z,100637.20
2023-06-24T11:35:38.257Z,100635.02
2023-06-24T11:38:16.850Z,100637.40
2023-06-24T11:40:59.661Z,100640.04
2023-06-24T11:43:45.752Z,100634.86
2023-06-24T11:46:37.134Z,100636.52
2023-06-24T11:49:11.443Z,100632.08
2023-06-24T11:51:57.007Z,100632.45
2023-06-24T11:54:44.179Z,100634.15
2023-06-24T11:57:16.340Z,100629.95
2023-06-24T11:59:45.503Z,100630.33
2023-06-24T12:02:15.683Z,100626.87
2023-06-24T12:04:46.142Z,100625.23
2023-06-24T12:07:15.958Z,100625.26
2023-06-24T12:09:45.864Z,100621.13
2023-06-24T12:12:15.104Z,100620.64
2023-06-24T12:14:45.686Z,100616.23
2023-06-24T12:17:17.324Z,100614.64
2023-06-24T12:19:55.738Z,100609.96
2023-06-24T12:22:26.143Z,100609.54
2023-06-24T12:24:56.817Z,100603.33
2023-06-24T12:27:30.866Z,100606.78
2023-06-24T12:30:15.351Z,100603.64
2023-06-24T12:33:02.417Z,100601.44
2023-06-24T12:35:51.981Z,100599.74
2023-06-24T12:38:57.301Z,100600.67
2023-06-24T12:41:43.916Z,100603.17
2023-06-24T12:44:32.517Z,100595.52
2023-06-24T12:47:06.514Z,100596.13
2023-06-24T12:49:38.326Z,100592.95
2023-06-24T12:52:09.602Z,100591.02
2023-06-24T12:54:39.268Z,100586.86
2023-06-24T12:57:13.945Z,100586.55
2023-06-24T12:59:44.031Z,100588.11
2023-06-24T13:02:13.665Z,100588.46
2023-06-24T13:04:43.224Z,100596.02
2023-06-24T13:07:12.979Z,100597.08
2023-06-24T13:09:44.329Z,100587.29
2023-06-24T13:12:13.718Z,100587.35
2023-06-24T13:14:43.438Z,100585.62
2023-06-24T13:17:13.454Z,100586.44
2023-06-24T13:19:45.501Z,100585.03
2023-06-24T13:22:15.225Z,100582.20
2023-06-24T13:24:45.984Z,100585.89
2023-06-24T13:27:15.304Z,100585.91
2023-06-24T13:29:45.130Z,100584.39
2023-06-24T13:32:14.598Z,100581.05
2023-06-24T13:34:45.149Z,100581.21
2023-06-24T13:37:16.575Z,100581.95
2023-06-24T13:39:46.347Z,100581.75
2023-06-24T13:42:16.121Z,100582.69
2023-06-24T13:44:46.073Z,100586.74
2023-06-24T13:47:15.614Z,100584.90
2023-06-24T13:49:45.303Z,100581.39
2023-06-24T13:52:14.826Z,100582.55
2023-06-24T13:54:45.150Z,100583.56
2023-06-24T13:57:18.584Z,100587.70
2023-06-24T13:59:48.174Z,100586.14
2023-06-24T14:02:17.895Z,100592.71
2023-06-24T14:04:48.290Z,100582.30
2023-06-24T14:07:17.820Z,100585.47
2023-06-24T14:09:49.339Z,100587.95
2023-06-24T14:12:17.888Z,100588.30
2023-06-24T14:14:46.484Z,100589.06
2023-06-24T14:17:16.035Z,100587.90
2023-06-24T14:19:47.704Z,100584.23
2023-06-24T14:22:19.347Z,100589.84
2023-06-24T14:24:48.348Z,100582.05
2023-06-24T14:27:19.070Z,100587.80
2023-06-24T14:29:50.086Z,100581.16
2023-06-24T14:32:19.121Z,100582.35
2023-06-24T14:34:48.450Z,100575.54
2023-06-24T14:37:17.902Z,100576.25
2023-06-24T14:39:46.710Z,100573.71
2023-06-24T14:42:17.498Z,100571.98
2023-06-24T14:44:46.179Z,100568.54
2023-06-24T14:47:14.742Z,100567.35
2023-06-24T14:49:45.562Z,100569.52
2023-06-24T14:52:14.930Z,100570.87
2023-06-24T14:54:43.477Z,100571.11
2023-06-24T14:57:13.618Z,100569.63
2023-06-24T14:59:42.235Z,100567.16
2023-06-24T15:02:11.946Z,100565.38
2023-06-24T15:04:45.315Z,100562.98
2023-06-24T15:07:14.942Z,100561.45
2023-06-24T15:09:45.020Z,100561.09
2023-06-24T15:12:14.439Z,100559.97
2023-06-24T15:14:46.741Z,100559.51
2023-06-24T15:17:16.462Z,100558.56
2023-06-24T15:19:45.362Z,100560.00
2023-06-24T15:22:14.735Z,100554.59
2023-06-24T15:24:46.570Z,100552.05
2023-06-24T15:27:15.159Z,100550.11
2023-06-24T15:29:43.626Z,100551.25
2023-06-24T15:32:13.032Z,100546.57
2023-06-24T15:34:42.278Z,100549.52
2023-06-24T15:37:11.964Z,100555.39
2023-06-24T15:39:44.039Z,100548.80
2023-06-24T15:42:12.737Z,100551.96
2023-06-24T15:44:42.141Z,100555.70
2023-06-24T15:47:11.969Z,100550.73
2023-06-24T15:49:41.365Z,100543.65
2023-06-24T15:52:11.218Z,100547.63
2023-06-24T15:54:42.717Z,100546.16
2023-06-24T15:57:12.348Z,100548.15
2023-06-24T15:59:42.082Z,100544.48
2023-06-24T16:02:12.343Z,100543.36
2023-06-24T16:04:42.119Z,100543.68
2023-06-24T16:07:11.390Z,100542.00
2023-06-24T16:09:40.724Z,100543.50
2023-06-24T16:12:10.452Z,100546.13
2023-06-24T16:14:40.105Z,100545.63
2023-06-24T16:17:10.109Z,100548.02
2023-06-24T16:19:39.970Z,100553.02
2023-06-24T16:22:10.223Z,100545.69
2023-06-24T16:24:39.789Z,100547.67
2023-06-24T16:27:09.425Z,100547.11
2023-06-24T16:29:39.504Z,100547.65
2023-06-24T16:32:08.879Z,100547.48
2023-06-24T16:34:38.199Z,100546.27
2023-06-24T16:37:07.937Z,100544.14
2023-06-24T16:39:37.113Z,100542.34
2023-06-24T16:42:06.690Z,100544.11
2023-06-24T16:44:38.925Z,100544.75
2023-06-24T16:47:08.148Z,100539.63
2023-06-24T16:49:37.823Z,100543.23
2023-06-24T16:52:07.959Z,100538.45
2023-06-24T16:54:37.765Z,100540.48
2023-06-24T16:57:06.525Z,100536.78
2023-06-24T16:59:35.861Z,100535.97
2023-06-24T17:02:08.058Z,100537.51
2023-06-24T17:04:37.802Z,100541.70
2023-06-24T17:07:06.709Z,100541.80
2023-06-24T17:09:35.947Z,100542.23
2023-06-24T17:12:06.310Z,100540.35
2023-06-24T17:14:43.204Z,100539.40
2023-06-24T17:17:13.097Z,100538.91
2023-06-24T17:19:42.712Z,100536.48
2023-06-24T17:22:12.140Z,100537.59
2023-06-24T17:24:42.953Z,100535.50
2023-06-24T17:27:11.875Z,100538.80
2023-06-24T17:29:41.809Z,100532.52
2023-06-24T17:32:11.049Z,100533.73
2023-06-24T17:34:40.780Z,100531.38
2023-06-24T17:37:10.658Z,100530.12
2023-06-24T17:39:39.727Z,100531.54
2023-06-24T17:42:09.234Z,100532.48
2023-06-24T17:44:39.745Z,100534.67
2023-06-24T17:47:10.465Z,100534.20
2023-06-24T17:49:40.342Z,100538.87
2023-06-24T17:52:09.271Z,100539.98
2023-06-24T17:54:38.736Z,100543.77
2023-06-24T17:57:13.307Z,100545.38
2023-06-24T17:59:49.819Z,100548.30
2023-06-24T18:02:20.535Z,100550.79
2023-06-24T18:04:50.508Z,100551.06
2023-06-24T18:07:21.146Z,100554.15
2023-06-24T18:09:53.797Z,100557.71
2023-06-24T18:12:28.258Z,100554.56
2023-06-24T18:14:57.709Z,100556.23
2023-06-24T18:17:26.524Z,100559.21
2023-06-24T18:19:55.742Z,100563.05
2023-06-24T18:22:24.593Z,100564.71
2023-06-24T18:24:55.315Z,100564.44
2023-06-24T18:27:25.228Z,100562.64
2023-06-24T18:29:54.786Z,100565.77
2023-06-24T18:32:24.080Z,100566.36
2023-06-24T18:34:57.939Z,100566.23
2023-06-24T18:37:28.070Z,100569.24
2023-06-24T18:39:57.479Z,100568.01
2023-06-24T18:42:26.931Z,100570.50
2023-06-24T18:44:56.552Z,100568.02
2023-06-24T18:47:25.972Z,100568.20
2023-06-24T18:52:40.240Z,100570.30
2023-06-24T18:55:09.924Z,100574.81
2023-06-24T18:57:39.838Z,100580.86
2023-06-24T19:00:09.924Z,100579.06
2023-06-24T19:02:40.072Z,100581.15
2023-06-24T19:05:09.542Z,100582.89
2023-06-24T19:07:39.617Z,100585.80
2023-06-24T19:10:09.851Z,100589.08
2023-06-24T19:12:39.834Z,100593.69
2023-06-24T19:15:10.689Z,100590.11
2023-06-24T19:17:40.381Z,100591.04
2023-06-24T19:20:10.374Z,100595.66
2023-06-24T19:22:39.660Z,100595.61
2023-06-24T19:25:08.962Z,100595.66
2023-06-24T19:27:38.102Z,100598.08
2023-06-24T19:30:08.112Z,100599.20
2023-06-24T19:32:37.050Z,100602.70
2023-06-24T19:35:06.590Z,100602.90
2023-06-24T19:37:35.867Z,100602.94
2023-06-24T19:40:05.929Z,100605.73
2023-06-24T19:42:35.541Z,100606.91
2023-06-24T19:45:06.858Z,100606.98
2023-06-24T19:47:39.543Z,100610.30
2023-06-24T19:50:11.824Z,100607.93
2023-06-24T19:52:41.540Z,100606.84
2023-06-24T19:55:15.514Z,100607.52
2023-06-24T19:57:50.076Z,100610.90
2023-06-24T20:00:27.915Z,100605.38
2023-06-24T20:03:04.199Z,100610.92
2023-06-24T20:05:38.852Z,100612.77
2023-06-24T20:08:11.798Z,100611.55
2023-06-24T20:10:41.063Z,100610.60
2023-06-24T20:13:12.538Z,100613.33
2023-06-24T20:15:47.533Z,100612.91
2023-06-24T20:18:26.291Z,100612.11
2023-06-24T20:20:59.979Z,100614.02
2023-06-24T20:23:34.982Z,100612.88
2023-06-24T20:26:07.504Z,100617.33
2023-06-24T20:28:41.741Z,100620.20
2023-06-24T20:31:14.135Z,100620.52
2023-06-24T20:34:07.676Z,100624.27
2023-06-24T20:36:39.870Z,100623.73
2023-06-24T20:39:13.922Z,100622.33
2023-06-24T20:41:45.562Z,100628.52
2023-06-24T20:44:18.517Z,100624.89
2023-06-24T20:46:49.485Z,100632.05
2023-06-24T20:49:19.350Z,100632.38
2023-06-24T20:51:55.009Z,100633.34
2023-06-24T20:54:26.469Z,100629.70
2023-06-24T20:56:58.731Z,100632.76
2023-06-24T20:59:29.984Z,100631.05
2023-06-24T21:01:59.320Z,100634.37
2023-06-24T21:04:28.051Z,100632.14
2023-06-24T21:06:56.582Z,100634.48
2023-06-24T21:09:25.607Z,100634.60
2023-06-24T21:11:54.968Z,100639.54
2023-06-24T21:14:23.508Z,100635.16
2023-06-24T21:16:52.379Z,100640.52
2023-06-24T21:19:21.452Z,100640.96
2023-06-24T21:21:50.769Z,100642.61
2023-06-24T21:24:20.573Z,100646.48
2023-06-24T21:26:49.675Z,100648.66
2023-06-24T21:29:19.443Z,100642.09
2023-06-24T21:31:48.601Z,100646.84
2023-06-24T21:34:18.597Z,100646.17
2023-06-24T21:36:47.824Z,100650.32
2023-06-24T21:39:17.255Z,100649.30
2023-06-24T21:41:47.452Z,100649.86
2023-06-24T21:44:17.009Z,100647.36
2023-06-24T21:46:46.406Z,100645.64
2023-06-24T21:49:16.994Z,100641.73
2023-06-24T21:51:45.852Z,100645.48
2023-06-24T21:54:15.179Z,100648.66
2023-06-24T21:56:44.412Z,100654.13
2023-06-24T21:59:14.636Z,100653.11
2023-06-24T22:01:43.937Z,100657.01
2023-06-24T22:04:13.329Z,100661.30
2023-06-24T22:06:44.216Z,100663.27
2023-06-24T22:09:13.505Z,100665.31
2023-06-24T22:11:42.921Z,100664.05
2023-06-24T22:14:12.078Z,100663.64
2023-06-24T22:16:43.276Z,100663.27
2023-06-24T22:19:11.898Z,100664.61
2023-06-24T22:21:40.549Z,100669.02
2023-06-24T22:24:09.259Z,100671.46
2023-06-24T22:26:40.099Z,100673.31
2023-06-24T22:29:09.920Z,100679.05
2023-06-24T22:31:40.494Z,100675.14
2023-06-24T22:34:10.520Z,100675.95
2023-06-24T22:36:41.437Z,100676.86
2023-06-24T22:39:11.180Z,100676.54
2023-06-24T22:41:39.769Z,100678.99
2023-06-24T22:44:09.348Z,100677.44
2023-06-24T22:46:38.186Z,100679.91
2023-06-24T22:49:07.580Z,100679.94
2023-06-24T22:51:36.932Z,100684.41
2023-06-24T22:54:05.649Z,100686.04
2023-06-24T22:56:35.271Z,100684.90
2023-06-24T22:59:04.714Z,100686.39
2023-06-24T23:01:34.213Z,100689.89
2023-06-24T23:04:03.150Z,100691.17
2023-06-24T23:06:33.049Z,100696.92
2023-06-24T23:09:01.850Z,100696.98
2023-06-24T23:11:32.032Z,100697.91
2023-06-24T23:14:02.915Z,100702.15
2023-06-24T23:16:32.606Z,100702.23
2023-06-24T23:19:01.259Z,100703.80
2023-06-24T23:21:31.502Z,100699.98
2023-06-24T23:24:04.173Z,100701.25
2023-06-24T23:26:41.078Z,100703.27
2023-06-24T23:29:14.473Z,100704.88
2023-06-24T23:31:46.049Z,100704.06
2023-06-24T23:34:17.402Z,100705.45
2023-06-24T23:36:46.609Z,100705.73
2023-06-24T23:39:15.630Z,100704.71
2023-06-24T23:41:44.970Z,100703.98
2023-06-24T23:44:14.489Z,100698.36
2023-06-24T23:46:43.262Z,100698.16
2023-06-24T23:49:12.316Z,100695.92
2023-06-24T23:51:42.118Z,100696.41
2023-06-24T23:54:10.749Z,100696.20
2023-06-24T23:56:41.118Z,100694.59
2023-06-24T23:59:10.415Z,100690.78
